createdAt,value
2018-03-30T00:00:28.336Z,1003.03
2018-03-30T00:01:28.352Z,1003.01
2018-03-30T00:02:28.367Z,1003.04
2018-03-30T00:03:28.383Z,1003.03
2018-03-30T00:04:28.401Z,1003.06
2018-03-30T00:05:28.420Z,1003.05
2018-03-30T00:06:28.432Z,1003.06
2018-03-30T00:08:28.474Z,1003.13
2018-03-30T00:09:28.481Z,1003.13
2018-03-30T00:10:28.497Z,1003.13
2018-03-30T00:11:28.513Z,1003.16
2018-03-30T00:12:28.530Z,1003.15
2018-03-30T00:13:28.545Z,1003.12
2018-03-30T00:14:28.578Z,1003.16
2018-03-30T00:15:28.578Z,1003.19
2018-03-30T00:16:28.595Z,1003.17
2018-03-30T00:17:28.610Z,1003.23
2018-03-30T00:18:28.627Z,1003.22
2018-03-30T00:19:28.643Z,1003.23
2018-03-30T00:20:28.665Z,1003.22
2018-03-30T00:21:28.676Z,1003.23
2018-03-30T00:23:28.709Z,1003.27
2018-03-30T00:24:28.725Z,1003.28
2018-03-30T00:25:28.741Z,1003.25
2018-03-30T00:26:28.759Z,1003.26
2018-03-30T00:27:28.775Z,1003.28
2018-03-30T00:28:28.790Z,1003.29
2018-03-30T00:29:28.807Z,1003.27
2018-03-30T00:30:28.823Z,1003.28
2018-03-30T00:31:28.838Z,1003.25
2018-03-30T00:32:28.855Z,1003.28
2018-03-30T00:33:28.935Z,1003.28
2018-03-30T00:34:28.888Z,1003.3
2018-03-30T00:35:28.903Z,1003.3
2018-03-30T00:36:28.920Z,1003.33
2018-03-30T00:37:28.939Z,1003.35
2018-03-30T00:38:28.952Z,1003.38
2018-03-30T00:39:28.968Z,1003.39
2018-03-30T00:40:28.984Z,1003.44
2018-03-30T00:41:29.001Z,1003.43
2018-03-30T00:42:29.017Z,1003.46
2018-03-30T00:43:29.033Z,1003.46
2018-03-30T00:44:29.049Z,1003.5
2018-03-30T00:45:29.065Z,1003.5
2018-03-30T00:46:29.081Z,1003.48
2018-03-30T00:47:29.098Z,1003.49
2018-03-30T00:48:29.115Z,1003.52
2018-03-30T00:49:29.131Z,1003.55
2018-03-30T00:50:29.146Z,1003.54
2018-03-30T00:51:29.162Z,1003.53
2018-03-30T00:52:29.178Z,1003.58
2018-03-30T00:53:29.194Z,1003.57
2018-03-30T00:55:29.229Z,1003.54
2018-03-30T00:56:29.250Z,1003.55
2018-03-30T00:57:29.259Z,1003.58
2018-03-30T00:58:29.275Z,1003.51
2018-03-30T00:59:29.292Z,1003.53
2018-03-30T01:00:29.308Z,1003.57
2018-03-30T01:01:29.324Z,1003.6
2018-03-30T01:02:29.340Z,1003.62
2018-03-30T01:03:29.357Z,1003.62
2018-03-30T01:04:29.371Z,1003.62
2018-03-30T01:05:29.388Z,1003.57
2018-03-30T01:06:29.405Z,1003.61
2018-03-30T01:07:29.420Z,1003.6
2018-03-30T01:08:29.436Z,1003.67
2018-03-30T01:09:29.453Z,1003.64
2018-03-30T01:11:29.485Z,1003.58
2018-03-30T01:12:29.500Z,1003.63
2018-03-30T01:13:29.516Z,1003.61
2018-03-30T01:14:29.533Z,1003.58
2018-03-30T01:15:29.548Z,1003.62
2018-03-30T01:16:29.564Z,1003.67
2018-03-30T01:17:29.581Z,1003.7
2018-03-30T01:18:29.597Z,1003.72
2018-03-30T01:19:29.613Z,1003.77
2018-03-30T01:20:29.729Z,1003.77
2018-03-30T01:21:29.644Z,1003.78
2018-03-30T01:22:29.661Z,1003.77
2018-03-30T01:23:29.680Z,1003.76
2018-03-30T01:24:29.693Z,1003.76
2018-03-30T01:25:29.708Z,1003.8
2018-03-30T01:27:29.740Z,1003.87
2018-03-30T01:28:29.756Z,1003.83
2018-03-30T01:29:29.772Z,1003.87
2018-03-30T01:30:29.787Z,1003.83
2018-03-30T01:31:29.803Z,1003.8
2018-03-30T01:32:29.821Z,1003.79
2018-03-30T01:33:29.836Z,1003.81
2018-03-30T01:34:29.851Z,1003.76
2018-03-30T01:35:29.867Z,1003.79
2018-03-30T01:36:29.884Z,1003.78
2018-03-30T01:37:29.898Z,1003.77
2018-03-30T01:38:29.915Z,1003.8
2018-03-30T01:39:29.931Z,1003.82
2018-03-30T01:40:29.947Z,1003.81
2018-03-30T01:41:29.963Z,1003.8
2018-03-30T01:43:29.994Z,1003.87
2018-03-30T01:44:30.022Z,1003.88
2018-03-30T01:45:30.026Z,1003.85
2018-03-30T01:46:30.042Z,1003.83
2018-03-30T01:47:30.058Z,1003.79
2018-03-30T01:48:30.074Z,1003.86
2018-03-30T01:49:30.090Z,1003.81
2018-03-30T01:50:30.105Z,1003.85
2018-03-30T01:51:30.121Z,1003.86
2018-03-30T01:52:30.137Z,1003.85
2018-03-30T01:53:30.153Z,1003.92
2018-03-30T01:54:30.176Z,1003.91
2018-03-30T01:55:30.185Z,1003.95
2018-03-30T01:56:30.201Z,1003.95
2018-03-30T01:58:30.233Z,1003.96
2018-03-30T01:59:30.248Z,1004.01
2018-03-30T02:00:30.264Z,1004.03
2018-03-30T02:01:30.285Z,1003.99
2018-03-30T02:02:30.308Z,1004.02
2018-03-30T02:03:30.311Z,1004
2018-03-30T02:04:30.362Z,1004.03
2018-03-30T02:05:30.342Z,1004.03
2018-03-30T02:06:30.358Z,1004.07
2018-03-30T02:07:30.376Z,1004.02
2018-03-30T02:08:30.390Z,1004.05
2018-03-30T02:09:30.406Z,1004.05
2018-03-30T02:10:30.421Z,1004.08
2018-03-30T02:11:30.441Z,1004.06
2018-03-30T02:12:30.453Z,1004.08
2018-03-30T02:13:30.469Z,1004.12
2018-03-30T02:14:30.483Z,1004.1
2018-03-30T02:15:30.499Z,1004.1
2018-03-30T02:16:30.516Z,1004.15
2018-03-30T02:17:30.532Z,1004.13
2018-03-30T02:18:30.546Z,1004.12
2018-03-30T02:19:30.561Z,1004.09
2018-03-30T02:20:30.578Z,1004.12
2018-03-30T02:21:30.593Z,1004.1
2018-03-30T02:22:30.608Z,1004.11
2018-03-30T02:23:30.624Z,1004.09
2018-03-30T02:24:30.642Z,1004.1
2018-03-30T02:25:30.655Z,1004.13
2018-03-30T02:26:30.673Z,1004.15
2018-03-30T02:27:30.686Z,1004.14
2018-03-30T02:28:30.701Z,1004.17
2018-03-30T02:30:30.740Z,1004.2
2018-03-30T02:31:30.750Z,1004.2
2018-03-30T02:32:30.765Z,1004.21
2018-03-30T02:33:30.780Z,1004.22
2018-03-30T02:34:30.801Z,1004.22
2018-03-30T02:35:30.811Z,1004.25
2018-03-30T02:36:30.827Z,1004.24
2018-03-30T02:37:30.843Z,1004.23
2018-03-30T02:38:30.858Z,1004.24
2018-03-30T02:39:30.877Z,1004.23
2018-03-30T02:40:30.888Z,1004.27
2018-03-30T02:41:30.904Z,1004.23
2018-03-30T02:42:30.926Z,1004.27
2018-03-30T02:43:30.940Z,1004.25
2018-03-30T02:44:30.951Z,1004.27
2018-03-30T02:46:30.984Z,1004.29
2018-03-30T02:47:31.003Z,1004.28
2018-03-30T02:48:31.013Z,1004.32
2018-03-30T02:49:31.030Z,1004.28
2018-03-30T02:50:31.045Z,1004.29
2018-03-30T02:51:31.060Z,1004.22
2018-03-30T02:52:31.078Z,1004.25
2018-03-30T02:53:31.094Z,1004.26
2018-03-30T02:54:31.207Z,1004.26
2018-03-30T02:55:31.122Z,1004.27
2018-03-30T02:56:31.139Z,1004.24
2018-03-30T02:57:31.169Z,1004.24
2018-03-30T02:58:31.169Z,1004.22
2018-03-30T02:59:31.184Z,1004.22
2018-03-30T03:00:31.201Z,1004.19
2018-03-30T03:02:31.231Z,1004.19
2018-03-30T03:03:31.248Z,1004.17
2018-03-30T03:04:31.263Z,1004.16
2018-03-30T03:05:31.284Z,1004.2
2018-03-30T03:06:31.293Z,1004.19
2018-03-30T03:07:31.310Z,1004.18
2018-03-30T03:08:31.325Z,1004.18
2018-03-30T03:09:31.348Z,1004.18
2018-03-30T03:10:31.355Z,1004.16
2018-03-30T03:11:31.371Z,1004.15
2018-03-30T03:12:31.385Z,1004.12
2018-03-30T03:13:31.401Z,1004.19
2018-03-30T03:14:31.417Z,1004.15
2018-03-30T03:15:31.433Z,1004.16
2018-03-30T03:16:31.448Z,1004.13
2018-03-30T03:18:31.579Z,1004.21
2018-03-30T03:19:31.496Z,1004.18
2018-03-30T03:20:31.511Z,1004.21
2018-03-30T03:21:31.527Z,1004.2
2018-03-30T03:22:31.542Z,1004.18
2018-03-30T03:23:31.556Z,1004.2
2018-03-30T03:24:31.572Z,1004.24
2018-03-30T03:25:31.587Z,1004.2
2018-03-30T03:26:31.602Z,1004.21
2018-03-30T03:27:31.617Z,1004.19
2018-03-30T03:28:31.641Z,1004.22
2018-03-30T03:29:31.648Z,1004.21
2018-03-30T03:30:31.665Z,1004.22
2018-03-30T03:31:31.680Z,1004.18
2018-03-30T03:33:31.711Z,1004.22
2018-03-30T03:34:31.725Z,1004.23
2018-03-30T03:35:31.741Z,1004.2
2018-03-30T03:36:31.756Z,1004.25
2018-03-30T03:37:31.771Z,1004.21
2018-03-30T03:38:31.786Z,1004.18
2018-03-30T03:39:31.801Z,1004.22
2018-03-30T03:40:31.817Z,1004.24
2018-03-30T03:41:31.831Z,1004.18
2018-03-30T03:42:31.847Z,1004.26
2018-03-30T03:43:31.861Z,1004.23
2018-03-30T03:44:31.877Z,1004.27
2018-03-30T03:45:31.891Z,1004.23
2018-03-30T03:46:31.907Z,1004.22
2018-03-30T03:47:31.923Z,1004.24
2018-03-30T03:48:31.939Z,1004.22
2018-03-30T03:49:31.952Z,1004.23
2018-03-30T03:50:31.968Z,1004.25
2018-03-30T03:51:31.982Z,1004.27
2018-03-30T03:52:31.996Z,1004.25
2018-03-30T03:53:32.011Z,1004.23
2018-03-30T03:54:32.027Z,1004.26
2018-03-30T03:55:32.042Z,1004.28
2018-03-30T03:56:32.056Z,1004.26
2018-03-30T03:57:32.071Z,1004.28
2018-03-30T03:58:32.087Z,1004.27
2018-03-30T03:59:32.205Z,1004.23
2018-03-30T04:00:32.121Z,1004.26
2018-03-30T04:01:32.131Z,1004.24
2018-03-30T04:02:32.146Z,1004.2
2018-03-30T04:03:32.160Z,1004.22
2018-03-30T04:05:32.190Z,1004.22
2018-03-30T04:06:32.206Z,1004.23
2018-03-30T04:07:32.220Z,1004.21
2018-03-30T04:08:32.235Z,1004.22
2018-03-30T04:09:32.250Z,1004.22
2018-03-30T04:10:32.264Z,1004.24
2018-03-30T04:11:32.279Z,1004.24
2018-03-30T04:12:32.294Z,1004.26
2018-03-30T04:13:32.309Z,1004.24
2018-03-30T04:14:32.323Z,1004.2
2018-03-30T04:15:32.338Z,1004.23
2018-03-30T04:16:32.352Z,1004.28
2018-03-30T04:17:32.368Z,1004.26
2018-03-30T04:18:32.382Z,1004.24
2018-03-30T04:19:32.396Z,1004.25
2018-03-30T04:21:32.527Z,1004.27
2018-03-30T04:22:32.440Z,1004.25
2018-03-30T04:23:32.461Z,1004.25
2018-03-30T04:24:32.471Z,1004.24
2018-03-30T04:25:32.486Z,1004.24
2018-03-30T04:26:32.500Z,1004.23
2018-03-30T04:27:32.514Z,1004.23
2018-03-30T04:28:32.529Z,1004.31
2018-03-30T04:29:32.543Z,1004.27
2018-03-30T04:30:32.558Z,1004.26
2018-03-30T04:31:32.574Z,1004.28
2018-03-30T04:32:32.587Z,1004.32
2018-03-30T04:33:32.602Z,1004.33
2018-03-30T04:34:32.617Z,1004.37
2018-03-30T04:35:32.631Z,1004.32
2018-03-30T04:37:32.659Z,1004.4
2018-03-30T04:38:32.674Z,1004.41
2018-03-30T04:39:32.690Z,1004.41
2018-03-30T04:40:32.738Z,1004.41
2018-03-30T04:41:32.722Z,1004.39
2018-03-30T04:42:32.733Z,1004.42
2018-03-30T04:43:32.748Z,1004.41
2018-03-30T04:44:32.762Z,1004.4
2018-03-30T04:45:32.777Z,1004.43
2018-03-30T04:46:32.790Z,1004.41
2018-03-30T04:47:32.805Z,1004.4
2018-03-30T04:48:32.819Z,1004.43
2018-03-30T04:49:32.835Z,1004.45
2018-03-30T04:50:32.849Z,1004.43
2018-03-30T04:51:32.869Z,1004.47
2018-03-30T04:53:32.892Z,1004.49
2018-03-30T04:54:32.907Z,1004.46
2018-03-30T04:55:32.921Z,1004.49
2018-03-30T04:56:32.936Z,1004.47
2018-03-30T04:57:32.950Z,1004.5
2018-03-30T04:58:32.964Z,1004.48
2018-03-30T04:59:32.980Z,1004.47
2018-03-30T05:00:32.994Z,1004.46
2018-03-30T05:01:33.009Z,1004.49
2018-03-30T05:02:33.023Z,1004.45
2018-03-30T05:03:33.038Z,1004.49
2018-03-30T05:04:33.054Z,1004.48
2018-03-30T05:05:33.067Z,1004.48
2018-03-30T05:06:33.087Z,1004.53
2018-03-30T05:08:33.112Z,1004.51
2018-03-30T05:09:33.125Z,1004.52
2018-03-30T05:10:33.141Z,1004.53
2018-03-30T05:11:33.156Z,1004.53
2018-03-30T05:12:33.170Z,1004.49
2018-03-30T05:13:33.183Z,1004.43
2018-03-30T05:14:33.199Z,1004.49
2018-03-30T05:15:33.214Z,1004.49
2018-03-30T05:16:33.241Z,1004.48
2018-03-30T05:17:33.243Z,1004.45
2018-03-30T05:18:33.261Z,1004.47
2018-03-30T05:19:33.373Z,1004.44
2018-03-30T05:20:33.291Z,1004.46
2018-03-30T05:21:33.402Z,1004.45
2018-03-30T05:22:33.316Z,1004.45
2018-03-30T05:23:33.333Z,1004.46
2018-03-30T05:24:33.345Z,1004.44
2018-03-30T05:25:33.361Z,1004.45
2018-03-30T05:26:33.375Z,1004.49
2018-03-30T05:27:33.392Z,1004.53
2018-03-30T05:28:33.405Z,1004.6
2018-03-30T05:29:33.420Z,1004.62
2018-03-30T05:30:33.437Z,1004.67
2018-03-30T05:31:33.451Z,1004.65
2018-03-30T05:32:33.468Z,1004.65
2018-03-30T05:33:33.484Z,1004.65
2018-03-30T05:34:33.583Z,1004.6
2018-03-30T05:35:33.515Z,1004.59
2018-03-30T05:36:33.531Z,1004.6
2018-03-30T05:37:33.549Z,1004.68
2018-03-30T05:38:33.566Z,1004.67
2018-03-30T05:40:33.597Z,1004.67
2018-03-30T05:41:33.619Z,1004.7
2018-03-30T05:42:33.630Z,1004.73
2018-03-30T05:43:33.651Z,1004.74
2018-03-30T05:44:33.664Z,1004.72
2018-03-30T05:45:33.680Z,1004.74
2018-03-30T05:46:33.697Z,1004.8
2018-03-30T05:47:33.716Z,1004.82
2018-03-30T05:48:33.732Z,1004.84
2018-03-30T05:49:33.748Z,1004.88
2018-03-30T05:50:33.771Z,1004.88
2018-03-30T05:51:33.783Z,1004.9
2018-03-30T05:52:33.802Z,1004.86
2018-03-30T05:53:33.819Z,1004.82
2018-03-30T05:54:33.837Z,1004.87
2018-03-30T05:56:33.874Z,1004.86
2018-03-30T05:57:33.891Z,1004.83
2018-03-30T05:58:33.911Z,1004.88
2018-03-30T05:59:33.930Z,1004.8
2018-03-30T06:00:33.948Z,1004.89
2018-03-30T06:01:33.968Z,1004.86
2018-03-30T06:02:33.988Z,1004.85
2018-03-30T06:03:34.008Z,1004.89
2018-03-30T06:04:34.027Z,1004.86
2018-03-30T06:05:34.048Z,1004.84
2018-03-30T06:06:34.069Z,1004.82
2018-03-30T06:07:34.090Z,1004.85
2018-03-30T06:08:34.111Z,1004.93
2018-03-30T06:09:34.133Z,1004.86
2018-03-30T06:10:34.164Z,1004.79
2018-03-30T06:12:34.199Z,1004.79
2018-03-30T06:13:34.221Z,1004.84
2018-03-30T06:14:34.243Z,1004.81
2018-03-30T06:15:34.265Z,1004.79
2018-03-30T06:16:34.288Z,1004.77
2018-03-30T06:17:34.311Z,1004.81
2018-03-30T06:18:34.334Z,1004.79
2018-03-30T06:19:34.357Z,1004.79
2018-03-30T06:20:34.381Z,1004.84
2018-03-30T06:21:34.405Z,1004.91
2018-03-30T06:22:34.429Z,1004.92
2018-03-30T06:23:34.452Z,1005.01
2018-03-30T06:24:34.477Z,1005.04
2018-03-30T06:25:34.500Z,1005.08
2018-03-30T06:26:34.524Z,1005.19
2018-03-30T06:28:34.575Z,1005.22
2018-03-30T06:29:34.600Z,1005.27
2018-03-30T06:30:34.624Z,1005.27
2018-03-30T06:31:34.648Z,1005.3
2018-03-30T06:32:34.678Z,1005.37
2018-03-30T06:33:34.698Z,1005.44
2018-03-30T06:34:34.722Z,1005.49
2018-03-30T06:35:34.748Z,1005.48
2018-03-30T06:36:34.773Z,1005.53
2018-03-30T06:37:34.799Z,1005.54
2018-03-30T06:38:34.822Z,1005.6
2018-03-30T06:39:34.848Z,1005.58
2018-03-30T06:40:34.873Z,1005.64
2018-03-30T06:41:34.899Z,1005.68
2018-03-30T06:43:34.948Z,1005.74
2018-03-30T06:44:34.972Z,1005.79
2018-03-30T06:45:34.998Z,1005.82
2018-03-30T06:46:35.023Z,1005.85
2018-03-30T06:47:35.049Z,1005.8
2018-03-30T06:48:35.073Z,1005.82
2018-03-30T06:49:35.099Z,1005.72
2018-03-30T06:50:35.124Z,1005.78
2018-03-30T06:51:35.149Z,1005.78
2018-03-30T06:52:35.174Z,1005.8
2018-03-30T06:53:35.200Z,1005.84
2018-03-30T06:54:35.226Z,1005.86
2018-03-30T06:55:35.251Z,1005.88
2018-03-30T06:56:35.276Z,1005.9
2018-03-30T06:57:35.303Z,1005.91
2018-03-30T06:58:35.330Z,1005.89
2018-03-30T06:59:35.351Z,1005.8
2018-03-30T07:00:35.376Z,1005.75
2018-03-30T07:01:35.403Z,1005.73
2018-03-30T07:02:35.426Z,1005.78
2018-03-30T07:03:35.452Z,1005.8
2018-03-30T07:04:35.477Z,1005.83
2018-03-30T07:05:35.503Z,1005.86
2018-03-30T07:06:35.527Z,1005.88
2018-03-30T07:07:35.552Z,1005.91
2018-03-30T07:08:35.577Z,1005.79
2018-03-30T07:09:35.602Z,1005.69
2018-03-30T07:10:35.631Z,1005.71
2018-03-30T07:11:35.652Z,1005.77
2018-03-30T07:12:35.677Z,1005.76
2018-03-30T07:13:35.700Z,1005.64
2018-03-30T07:15:35.751Z,1005.69
2018-03-30T07:16:35.776Z,1005.68
2018-03-30T07:17:35.800Z,1005.67
2018-03-30T07:18:35.824Z,1005.74
2018-03-30T07:19:35.849Z,1005.72
2018-03-30T07:20:35.873Z,1005.76
2018-03-30T07:21:35.897Z,1005.75
2018-03-30T07:22:35.972Z,1005.73
2018-03-30T07:23:35.946Z,1005.72
2018-03-30T07:24:35.969Z,1005.75
2018-03-30T07:25:35.993Z,1005.7
2018-03-30T07:26:36.018Z,1005.71
2018-03-30T07:27:36.043Z,1005.74
2018-03-30T07:28:36.115Z,1005.71
2018-03-30T07:29:36.090Z,1005.7
2018-03-30T07:31:36.138Z,1005.74
2018-03-30T07:32:36.162Z,1005.69
2018-03-30T07:33:36.188Z,1005.77
2018-03-30T07:34:36.211Z,1005.76
2018-03-30T07:35:36.233Z,1005.76
2018-03-30T07:36:36.257Z,1005.86
2018-03-30T07:37:36.281Z,1005.85
2018-03-30T07:38:36.305Z,1005.92
2018-03-30T07:39:36.328Z,1005.89
2018-03-30T07:40:36.350Z,1005.94
2018-03-30T07:41:36.375Z,1006.01
2018-03-30T07:42:36.400Z,1005.96
2018-03-30T07:43:36.422Z,1005.95
2018-03-30T07:44:36.446Z,1005.93
2018-03-30T07:45:36.471Z,1005.89
2018-03-30T07:47:36.542Z,1005.81
2018-03-30T07:48:36.543Z,1005.85
2018-03-30T07:49:36.567Z,1005.81
2018-03-30T07:50:36.591Z,1005.76
2018-03-30T07:51:36.616Z,1005.76
2018-03-30T07:52:36.641Z,1005.72
2018-03-30T07:53:36.665Z,1005.74
2018-03-30T07:54:36.689Z,1005.71
2018-03-30T07:55:36.713Z,1005.72
2018-03-30T07:56:36.738Z,1005.72
2018-03-30T07:57:36.767Z,1005.73
2018-03-30T07:58:36.786Z,1005.71
2018-03-30T07:59:36.811Z,1005.76
2018-03-30T08:00:36.835Z,1005.73
2018-03-30T08:01:36.858Z,1005.72
2018-03-30T08:03:36.956Z,1005.74
2018-03-30T08:04:36.930Z,1005.73
2018-03-30T08:05:36.954Z,1005.74
2018-03-30T08:06:36.977Z,1005.74
2018-03-30T08:07:37.001Z,1005.79
2018-03-30T08:08:37.025Z,1005.77
2018-03-30T08:09:37.049Z,1005.77
2018-03-30T08:10:37.073Z,1005.73
2018-03-30T08:11:37.096Z,1005.69
2018-03-30T08:12:37.119Z,1005.69
2018-03-30T08:13:37.148Z,1005.69
2018-03-30T08:14:37.167Z,1005.72
2018-03-30T08:15:37.192Z,1005.71
2018-03-30T08:16:37.215Z,1005.8
2018-03-30T08:18:37.262Z,1005.8
2018-03-30T08:19:37.285Z,1005.77
2018-03-30T08:20:37.308Z,1005.8
2018-03-30T08:21:37.332Z,1005.82
2018-03-30T08:22:37.356Z,1005.81
2018-03-30T08:23:37.382Z,1005.82
2018-03-30T08:24:37.402Z,1005.85
2018-03-30T08:25:37.426Z,1005.79
2018-03-30T08:26:37.456Z,1005.86
2018-03-30T08:27:37.474Z,1005.84
2018-03-30T08:28:37.496Z,1005.85
2018-03-30T08:29:37.522Z,1005.89
2018-03-30T08:30:37.544Z,1005.9
2018-03-30T08:31:37.605Z,1005.91
2018-03-30T08:32:37.593Z,1005.88
2018-03-30T08:33:37.618Z,1005.87
2018-03-30T08:34:37.640Z,1005.91
2018-03-30T08:35:37.664Z,1005.89
2018-03-30T08:36:37.690Z,1005.92
2018-03-30T08:37:37.713Z,1005.92
2018-03-30T08:38:37.738Z,1005.92
2018-03-30T08:39:37.763Z,1005.92
2018-03-30T08:40:37.787Z,1005.92
2018-03-30T08:41:37.811Z,1005.91
2018-03-30T08:42:37.836Z,1005.88
2018-03-30T08:43:37.861Z,1005.91
2018-03-30T08:44:37.886Z,1005.89
2018-03-30T08:45:37.909Z,1005.89
2018-03-30T08:46:37.935Z,1005.84
2018-03-30T08:47:37.960Z,1005.87
2018-03-30T08:48:37.984Z,1005.87
2018-03-30T08:50:38.035Z,1005.89
2018-03-30T08:51:38.060Z,1005.87
2018-03-30T08:52:38.085Z,1005.86
2018-03-30T08:53:38.110Z,1005.86
2018-03-30T08:54:38.136Z,1005.87
2018-03-30T08:55:38.161Z,1005.86
2018-03-30T08:56:38.185Z,1005.84
2018-03-30T08:57:38.210Z,1005.83
2018-03-30T08:58:38.235Z,1005.78
2018-03-30T08:59:38.260Z,1005.77
2018-03-30T09:00:38.284Z,1005.77
2018-03-30T09:01:38.310Z,1005.74
2018-03-30T09:02:38.334Z,1005.68
2018-03-30T09:03:38.358Z,1005.76
2018-03-30T09:04:38.383Z,1005.73
2018-03-30T09:06:38.431Z,1005.79
2018-03-30T09:07:38.454Z,1005.71
2018-03-30T09:08:38.518Z,1005.73
2018-03-30T09:09:38.503Z,1005.75
2018-03-30T09:10:38.526Z,1005.73
2018-03-30T09:11:38.550Z,1005.74
2018-03-30T09:12:38.577Z,1005.72
2018-03-30T09:13:38.598Z,1005.7
2018-03-30T09:14:38.620Z,1005.69
2018-03-30T09:15:38.645Z,1005.67
2018-03-30T09:16:38.668Z,1005.65
2018-03-30T09:17:38.692Z,1005.63
2018-03-30T09:18:38.715Z,1005.65
2018-03-30T09:19:38.738Z,1005.65
2018-03-30T09:20:38.762Z,1005.61
2018-03-30T09:22:38.807Z,1005.59
2018-03-30T09:23:38.830Z,1005.57
2018-03-30T09:24:38.854Z,1005.52
2018-03-30T09:25:38.876Z,1005.56
2018-03-30T09:26:38.902Z,1005.49
2018-03-30T09:27:38.929Z,1005.55
2018-03-30T09:28:38.945Z,1005.52
2018-03-30T09:29:38.968Z,1005.56
2018-03-30T09:30:38.991Z,1005.54
2018-03-30T09:31:39.014Z,1005.56
2018-03-30T09:32:39.089Z,1005.55
2018-03-30T09:33:39.059Z,1005.55
2018-03-30T09:34:39.081Z,1005.54
2018-03-30T09:35:39.104Z,1005.54
2018-03-30T09:36:39.126Z,1005.52
2018-03-30T09:38:39.171Z,1005.47
2018-03-30T09:39:39.195Z,1005.43
2018-03-30T09:40:39.216Z,1005.45
2018-03-30T09:41:39.239Z,1005.39
2018-03-30T09:42:39.265Z,1005.35
2018-03-30T09:43:39.283Z,1005.34
2018-03-30T09:44:39.305Z,1005.36
2018-03-30T09:45:39.328Z,1005.36
2018-03-30T09:46:39.357Z,1005.32
2018-03-30T09:47:39.372Z,1005.34
2018-03-30T09:48:39.394Z,1005.3
2018-03-30T09:49:39.417Z,1005.31
2018-03-30T09:50:39.439Z,1005.28
2018-03-30T09:51:39.467Z,1005.28
2018-03-30T09:53:39.506Z,1005.3
2018-03-30T09:54:39.528Z,1005.27
2018-03-30T09:55:39.549Z,1005.25
2018-03-30T09:56:39.572Z,1005.21
2018-03-30T09:57:39.594Z,1005.22
2018-03-30T09:58:39.615Z,1005.24
2018-03-30T09:59:39.637Z,1005.16
2018-03-30T10:00:39.659Z,1005.18
2018-03-30T10:01:39.680Z,1005.17
2018-03-30T10:02:39.703Z,1005.13
2018-03-30T10:03:39.726Z,1005.13
2018-03-30T10:04:39.747Z,1005.11
2018-03-30T10:05:39.768Z,1005.08
2018-03-30T10:06:39.790Z,1005.08
2018-03-30T10:07:39.812Z,1005.03
2018-03-30T10:08:39.885Z,1005.06
2018-03-30T10:09:39.855Z,1005.02
2018-03-30T10:10:39.877Z,1004.98
2018-03-30T10:11:39.945Z,1004.96
2018-03-30T10:12:39.923Z,1004.93
2018-03-30T10:13:39.943Z,1004.91
2018-03-30T10:14:39.965Z,1004.88
2018-03-30T10:15:39.988Z,1004.91
2018-03-30T10:16:40.009Z,1004.85
2018-03-30T10:17:40.031Z,1004.87
2018-03-30T10:18:40.054Z,1004.88
2018-03-30T10:19:40.075Z,1004.85
2018-03-30T10:20:40.097Z,1004.87
2018-03-30T10:21:40.119Z,1004.88
2018-03-30T10:22:40.142Z,1004.87
2018-03-30T10:23:40.163Z,1004.85
2018-03-30T10:25:40.208Z,1004.87
2018-03-30T10:26:40.231Z,1004.84
2018-03-30T10:27:40.253Z,1004.86
2018-03-30T10:28:40.276Z,1004.86
2018-03-30T10:29:40.299Z,1004.86
2018-03-30T10:30:40.322Z,1004.83
2018-03-30T10:31:40.345Z,1004.86
2018-03-30T10:32:40.366Z,1004.83
2018-03-30T10:33:40.388Z,1004.86
2018-03-30T10:34:40.410Z,1004.86
2018-03-30T10:35:40.433Z,1004.83
2018-03-30T10:36:40.456Z,1004.84
2018-03-30T10:37:40.479Z,1004.79
2018-03-30T10:38:40.502Z,1004.83
2018-03-30T10:39:40.524Z,1004.77
2018-03-30T10:41:40.570Z,1004.83
2018-03-30T10:42:40.592Z,1004.81
2018-03-30T10:43:40.615Z,1004.82
2018-03-30T10:44:40.639Z,1004.81
2018-03-30T10:45:40.660Z,1004.8
2018-03-30T10:46:40.684Z,1004.78
2018-03-30T10:47:40.709Z,1004.78
2018-03-30T10:48:40.758Z,1004.8
2018-03-30T10:49:40.757Z,1004.79
2018-03-30T10:50:40.773Z,1004.83
2018-03-30T10:51:40.797Z,1004.79
2018-03-30T10:52:40.820Z,1004.76
2018-03-30T10:53:40.841Z,1004.73
2018-03-30T10:54:40.867Z,1004.77
2018-03-30T10:55:40.887Z,1004.71
2018-03-30T10:57:40.931Z,1004.68
2018-03-30T10:58:40.954Z,1004.68
2018-03-30T10:59:41.009Z,1004.67
2018-03-30T11:00:40.998Z,1004.69
2018-03-30T11:01:41.020Z,1004.68
2018-03-30T11:02:41.044Z,1004.66
2018-03-30T11:03:41.066Z,1004.7
2018-03-30T11:04:41.095Z,1004.64
2018-03-30T11:05:41.113Z,1004.67
2018-03-30T11:06:41.133Z,1004.65
2018-03-30T11:07:41.153Z,1004.63
2018-03-30T11:08:41.176Z,1004.62
2018-03-30T11:09:41.198Z,1004.62
2018-03-30T11:10:41.221Z,1004.66
2018-03-30T11:11:41.251Z,1004.65
2018-03-30T11:13:41.288Z,1004.6
2018-03-30T11:14:41.312Z,1004.55
2018-03-30T11:15:41.330Z,1004.53
2018-03-30T11:16:41.353Z,1004.51
2018-03-30T11:17:41.378Z,1004.45
2018-03-30T11:18:41.396Z,1004.47
2018-03-30T11:19:41.418Z,1004.46
2018-03-30T11:20:41.441Z,1004.44
2018-03-30T11:21:41.463Z,1004.44
2018-03-30T11:22:41.484Z,1004.46
2018-03-30T11:23:41.506Z,1004.46
2018-03-30T11:24:41.586Z,1004.43
2018-03-30T11:25:41.550Z,1004.4
2018-03-30T11:26:41.572Z,1004.44
2018-03-30T11:28:41.616Z,1004.32
2018-03-30T11:29:41.637Z,1004.42
2018-03-30T11:30:41.659Z,1004.33
2018-03-30T11:31:41.681Z,1004.32
2018-03-30T11:32:41.703Z,1004.31
2018-03-30T11:33:41.723Z,1004.31
2018-03-30T11:34:41.745Z,1004.32
2018-03-30T11:35:41.767Z,1004.29
2018-03-30T11:36:41.788Z,1004.26
2018-03-30T11:37:41.810Z,1004.23
2018-03-30T11:38:41.831Z,1004.16
2018-03-30T11:39:41.853Z,1004.17
2018-03-30T11:40:41.874Z,1004.13
2018-03-30T11:41:41.896Z,1004.15
2018-03-30T11:42:41.917Z,1004.08
2018-03-30T11:43:41.939Z,1004.09
2018-03-30T11:44:42.106Z,1004.05
2018-03-30T11:45:41.981Z,1004.02
2018-03-30T11:46:42.002Z,1004.03
2018-03-30T11:47:42.023Z,1004.01
2018-03-30T11:48:42.045Z,1003.99
2018-03-30T11:49:42.066Z,1004.01
2018-03-30T11:50:42.088Z,1003.99
2018-03-30T11:51:42.109Z,1003.98
2018-03-30T11:52:42.129Z,1003.95
2018-03-30T11:53:42.154Z,1003.89
2018-03-30T11:54:42.171Z,1003.9
2018-03-30T11:55:42.192Z,1003.87
2018-03-30T11:56:42.213Z,1003.88
2018-03-30T11:57:42.234Z,1003.85
2018-03-30T11:58:42.255Z,1003.81
2018-03-30T12:00:42.298Z,1003.84
2018-03-30T12:01:42.319Z,1003.82
2018-03-30T12:02:42.339Z,1003.79
2018-03-30T12:03:42.360Z,1003.74
2018-03-30T12:04:42.381Z,1003.73
2018-03-30T12:05:42.403Z,1003.73
2018-03-30T12:06:42.430Z,1003.72
2018-03-30T12:07:42.444Z,1003.71
2018-03-30T12:08:42.465Z,1003.67
2018-03-30T12:09:42.485Z,1003.73
2018-03-30T12:10:42.506Z,1003.62
2018-03-30T12:11:42.528Z,1003.58
2018-03-30T12:12:42.548Z,1003.61
2018-03-30T12:13:42.568Z,1003.57
2018-03-30T12:14:42.592Z,1003.57
2018-03-30T12:16:42.631Z,1003.63
2018-03-30T12:17:42.651Z,1003.62
2018-03-30T12:18:42.673Z,1003.59
2018-03-30T12:19:42.693Z,1003.58
2018-03-30T12:20:42.713Z,1003.6
2018-03-30T12:21:42.735Z,1003.59
2018-03-30T12:22:42.756Z,1003.59
2018-03-30T12:23:42.776Z,1003.55
2018-03-30T12:24:42.797Z,1003.53
2018-03-30T12:25:42.826Z,1003.51
2018-03-30T12:26:42.839Z,1003.53
2018-03-30T12:27:42.861Z,1003.57
2018-03-30T12:28:42.879Z,1003.55
2018-03-30T12:29:42.903Z,1003.57
2018-03-30T12:30:42.922Z,1003.56
2018-03-30T12:32:42.963Z,1003.56
2018-03-30T12:33:42.985Z,1003.54
2018-03-30T12:34:43.005Z,1003.5
2018-03-30T12:35:43.026Z,1003.5
2018-03-30T12:36:43.046Z,1003.47
2018-03-30T12:37:43.068Z,1003.51
2018-03-30T12:38:43.088Z,1003.51
2018-03-30T12:39:43.108Z,1003.51
2018-03-30T12:40:43.130Z,1003.49
2018-03-30T12:41:43.151Z,1003.47
2018-03-30T12:42:43.172Z,1003.42
2018-03-30T12:43:43.192Z,1003.43
2018-03-30T12:44:43.214Z,1003.43
2018-03-30T12:45:43.235Z,1003.4
2018-03-30T12:46:43.255Z,1003.39
2018-03-30T12:48:43.297Z,1003.34